Aérodrome :
LOGIN :

S'inscrire | Disclaimer

   EN    FR    IT 

 










Légende :    VFR   VFR Marginal   IFR   IFR Intensif   IFR Très Intensif
Visi : 
Plafond : 
>= 8 km
>= 3000ft
5 à 8 km
1000 à 3000 ft
1500m à 5 km
500 à 1000 ft
800 à 1500m
200 à 500 ft
< 800m
< 200 ft
Symboles :   Orages  Brouillard  Fortes neiges  Fortes précipitations  Vent > 20 kt
SIGMETs :   Divers  Orages  Givrage  Turbulence  Onde Orograph.  Cendres Volcan.






- Altitude de l'aérodrome : 1071 ft
- Code IATA : LWO


UKLL - L'viv

DERNIER METAR :
  • 302000Z 30002MPS CAVOK M03/M10 Q1020 R31/CLRD// NOSIG

METARs EXPIRÉS :
  • 301930Z 00000MPS CAVOK M04/M08 Q1020 R31/CLRD// NOSIG
  • 301900Z 00000MPS CAVOK M04/M10 Q1020 R31/D NOSIG
  • 301830Z VRB01MPS CAVOK M03/M11 Q1020 R31/D NOSIG
  • 301800Z 31002MPS CAVOK M03/M11 Q1020 R31/CLRD// NOSIG
  • 301730Z 31003MPS CAVOK M02/M11 Q1020 R31/D NOSIG
  • 301700Z 33005MPS CAVOK M01/M12 Q1019 R31/D NOSIG

TAF TAF UKLL
Valide du 30 à 18h jusqu'au 31 à 18h UTC


301703Z 3018/3118 33004MPS 9999 BKN025 TX01/3112Z TNM04/3104Z
TEMPO 3021/3106 2100 BR BKN007
TEMPO 3106/3118 35004MPS



MET'MAP, la Météo Aéronautique d'un coup d'oeil ! - Copyright ORBIFLY Décembre 2007 - Disclaimer

ORBIFLY MET'MAP TEAM :

Programmation & Développement : Alexandra Zaïnal
Sur une idée originale de : Baudouin d'Aumeries
Assistance à la programmation : Marc-Olivier Méhu
Soutien technique & logistique : Manuel Goepfert

Contact : metmap@orbifly.com




SOURCES & CREDITS :

   NOAA